Rosston, Arkansas
Current Conditions -  °F | °C
As of 1:15 AM on Monday 24 Nov 2014 (Local Time) from KCDH Reporting Station
Broken Clouds Broken Clouds  
Wind Chill: 55°   Ceiling: 2800
Heat Index: 55°   Visibility: 10mi
Dew Point: 45°   Wind: 15mph
Humidity: 67%   Direction: 60°ENE
Pressure: 29.62"   Gusts: 25mph
Location:  33.59°N, 93.28°W
Report Text: KCDH 240715Z AUTO 06013G22KT 10SM BKN028 13/07 A2962 RMK AO2
Loading
Personal Weather Stations






























Interactive Weather Map New forecast layout! Learn more

10-Day Weather Forecast

Advertisements
Track Severe Weather on mobile